Aérodrome :
LOGIN :

S'inscrire | Disclaimer

   EN    FR    IT 

 










Légende :    VFR   VFR Marginal   IFR   IFR Intensif   IFR Très Intensif
Visi : 
Plafond : 
>= 8 km
>= 3000ft
5 à 8 km
1000 à 3000 ft
1500m à 5 km
500 à 1000 ft
800 à 1500m
200 à 500 ft
< 800m
< 200 ft
Symboles :   Orages  Brouillard  Fortes neiges  Fortes précipitations  Vent > 20 kt
SIGMETs :   Divers  Orages  Givrage  Turbulence  Onde Orograph.  Cendres Volcan.






- Altitude de l'aérodrome : 65 ft
- Code IATA : PIK


EGPK - Glasgow Prestwick

DERNIER METAR :
  • 280550Z 12007KT 9999 FEW026 04/02 Q1003

METARs EXPIRÉS :
  • 280450Z 10005KT 9999 FEW026 03/01 Q1004
  • 280350Z 18007KT 9999 FEW035 04/01 Q1005

TAF TAF EGPK
Valide du 28 à 06h jusqu'au 29 à 06h UTC


280454Z 2806/2906 20009KT 9999 FEW010 SCT020
TEMPO 2807/2819 5000 RA BKN010
PROB40
TEMPO 2807/2812 4000 RASN BKN008
BECMG 2809/2812 13012KT
PROB40
TEMPO 2812/2815 14015G25KT 3000 +RADZ RASN BKN005
PROB30
TEMPO 2815/2822 4000 RADZ BKN008
TEMPO 2822/2906 15018G28KT 5000 RA BKN012
BECMG 2903/2906 26009KT
PROB30
TEMPO 2903/2906 3000 +RA BKN006



MET'MAP, la Météo Aéronautique d'un coup d'oeil ! - Copyright ORBIFLY Décembre 2007 - Disclaimer

ORBIFLY MET'MAP TEAM :

Programmation & Développement : Alexandra Zaïnal
Sur une idée originale de : Baudouin d'Aumeries
Assistance à la programmation : Marc-Olivier Méhu
Soutien technique & logistique : Manuel Goepfert

Contact : metmap@orbifly.com




SOURCES & CREDITS :

   NOAA